Time;durP1;ratioP1;P1;durP2;ratioP2;P2;SDS_P1;SDS_P2;PMS_P1;PMS_P2;Temp;Humidity;BMP_temperature;BMP_pressure;BME280_temperature;BME280_humidity;BME280_pressure;Samples;Min_cycle;Max_cycle;Signal;HPM_P1;HPM_P2
2021/07/17 02:47:30;;;;;;;12.85;7.80;;;23.60;81.50;;;;;;4723257;30;20064;-77
2021/07/17 02:49:56;;;;;;;9.73;7.82;;;23.60;81.70;;;;;;4712566;30;20032;-78
2021/07/17 02:52:22;;;;;;;11.82;8.02;;;23.60;81.90;;;;;;4729126;30;20025;-78
2021/07/17 02:54:47;;;;;;;13.82;8.05;;;23.60;82.10;;;;;;4699293;30;20104;-78
2021/07/17 02:57:13;;;;;;;10.50;7.65;;;23.60;81.90;;;;;;4729668;30;20029;-78
2021/07/17 02:59:39;;;;;;;7.95;7.10;;;23.60;82.00;;;;;;4714061;30;20052;-77
2021/07/17 03:02:04;;;;;;;14.18;7.38;;;23.50;82.10;;;;;;4714263;30;20390;-78
2021/07/17 03:04:30;;;;;;;12.45;8.50;;;23.60;82.30;;;;;;4714315;30;20041;-78
2021/07/17 03:06:56;;;;;;;10.07;8.10;;;23.50;82.60;;;;;;4700547;30;20048;-78
2021/07/17 03:09:22;;;;;;;11.40;7.93;;;23.50;82.60;;;;;;4730947;30;20032;-78
2021/07/17 03:11:47;;;;;;;10.93;7.55;;;23.50;82.60;;;;;;4695874;30;20370;-77
2021/07/17 03:14:13;;;;;;;8.70;7.05;;;23.50;82.90;;;;;;4714755;30;20088;-78
2021/07/17 03:16:39;;;;;;;12.95;7.70;;;23.50;83.00;;;;;;4714821;30;20029;-78
2021/07/17 03:19:05;;;;;;;9.18;8.00;;;23.50;83.00;;;;;;4715398;30;20041;-78
2021/07/17 03:21:31;;;;;;;10.60;8.15;;;23.50;83.20;;;;;;4715544;30;20104;-78
2021/07/17 03:23:57;;;;;;;11.02;8.05;;;23.50;83.40;;;;;;4700670;30;20033;-78
2021/07/17 03:26:23;;;;;;;13.20;7.67;;;23.50;83.40;;;;;;4715432;30;20029;-78
2021/07/17 03:28:49;;;;;;;12.55;8.55;;;23.50;83.40;;;;;;4714927;30;20040;-78
2021/07/17 03:31:15;;;;;;;10.57;7.97;;;23.50;83.50;;;;;;4714838;30;20328;-78
2021/07/17 03:33:41;;;;;;;13.43;7.97;;;23.50;83.50;;;;;;4730061;30;20029;-78
2021/07/17 03:36:07;;;;;;;12.27;8.35;;;23.50;83.50;;;;;;4715720;30;20440;-78
2021/07/17 03:38:33;;;;;;;11.85;7.63;;;23.50;83.60;;;;;;4715741;30;20021;-78
2021/07/17 03:40:59;;;;;;;12.88;8.52;;;23.50;83.70;;;;;;4700674;30;20057;-78
2021/07/17 03:43:25;;;;;;;23.10;9.07;;;23.50;83.70;;;;;;4730682;30;20044;-78
2021/07/17 03:45:50;;;;;;;14.27;8.30;;;23.50;83.70;;;;;;4711725;30;20333;-78
2021/07/17 03:48:16;;;;;;;10.30;7.72;;;23.50;83.80;;;;;;4712907;30;20036;-78
2021/07/17 03:50:42;;;;;;;11.15;7.68;;;23.60;83.60;;;;;;4697598;30;20033;-78
2021/07/17 03:53:07;;;;;;;15.57;7.78;;;23.60;83.70;;;;;;4712150;30;20030;-78
2021/07/17 03:55:33;;;;;;;13.75;8.50;;;23.70;83.40;;;;;;4712231;30;20037;-78
2021/07/17 03:57:59;;;;;;;9.80;8.35;;;23.70;83.30;;;;;;4697109;30;20220;-78
2021/07/17 04:00:24;;;;;;;12.32;8.65;;;23.70;83.10;;;;;;4712009;30;20025;-78
2021/07/17 04:02:50;;;;;;;10.45;8.00;;;23.70;83.40;;;;;;4697902;30;20069;-78
2021/07/17 04:05:19;;;;;;;12.60;8.95;;;23.70;83.50;;;;;;4714273;30;20034;-78
2021/07/17 04:07:45;;;;;;;10.60;8.10;;;23.70;84.00;;;;;;4698599;30;20092;-78
2021/07/17 04:10:12;;;;;;;21.20;9.52;;;23.60;84.50;;;;;;4711233;30;20034;-77
2021/07/17 04:12:38;;;;;;;28.40;12.93;;;23.50;87.20;;;;;;4714722;30;20030;-80
2021/07/17 04:15:05;;;;;;;30.35;15.55;;;23.40;90.20;;;;;;4716095;30;20051;-78
2021/07/17 04:17:31;;;;;;;22.35;14.10;;;23.10;91.30;;;;;;4715092;30;20090;-79
2021/07/17 04:19:57;;;;;;;23.23;13.93;;;23.00;92.20;;;;;;4714861;30;20467;-78
2021/07/17 04:22:23;;;;;;;20.33;14.20;;;22.90;92.50;;;;;;4715236;30;20111;-78
2021/07/17 04:24:49;;;;;;;31.07;15.90;;;22.80;92.90;;;;;;4699826;30;20228;-79
2021/07/17 04:27:15;;;;;;;27.20;16.20;;;22.80;93.20;;;;;;4716749;30;20022;-79
2021/07/17 04:29:41;;;;;;;23.52;15.25;;;22.80;94.00;;;;;;4705397;30;20034;-77
2021/07/17 04:32:07;;;;;;;25.33;16.92;;;22.70;94.30;;;;;;4696170;30;20041;-78
2021/07/17 04:34:33;;;;;;;27.98;19.05;;;22.70;94.70;;;;;;4713150;30;20041;-79
2021/07/17 04:36:59;;;;;;;24.85;15.90;;;22.70;95.40;;;;;;4714155;30;20386;-79
2021/07/17 04:39:25;;;;;;;25.60;17.65;;;22.50;95.40;;;;;;4698828;30;20325;-78
2021/07/17 04:41:51;;;;;;;25.27;16.58;;;22.40;96.10;;;;;;4712554;30;20025;-77
2021/07/17 04:44:18;;;;;;;24.40;17.63;;;22.30;96.60;;;;;;4697427;30;20056;-78
2021/07/17 04:46:43;;;;;;;23.87;15.53;;;22.40;96.90;;;;;;4706772;30;20042;-78
2021/07/17 04:49:09;;;;;;;23.42;15.60;;;22.30;96.90;;;;;;4711762;30;20117;-78
2021/07/17 04:51:35;;;;;;;25.60;17.27;;;22.20;97.20;;;;;;4701602;30;20041;-79
2021/07/17 04:54:01;;;;;;;30.85;19.55;;;22.30;97.50;;;;;;4713112;30;20037;-78
2021/07/17 04:56:26;;;;;;;21.08;16.20;;;22.30;97.50;;;;;;4712460;30;20037;-78
2021/07/17 04:58:52;;;;;;;25.13;16.88;;;22.40;97.40;;;;;;4712529;30;20037;-79
2021/07/17 05:01:18;;;;;;;18.42;15.25;;;22.40;97.50;;;;;;4713089;30;20205;-78
2021/07/17 05:03:44;;;;;;;26.98;15.88;;;22.40;97.30;;;;;;4711866;30;20232;-78
2021/07/17 05:06:10;;;;;;;23.48;15.65;;;22.50;97.60;;;;;;4711805;30;20113;-79
2021/07/17 05:08:36;;;;;;;23.52;14.52;;;22.60;97.30;;;;;;4698587;30;20390;-78
2021/07/17 05:11:02;;;;;;;16.20;13.93;;;22.70;97.00;;;;;;4714578;30;20212;-78
2021/07/17 05:13:28;;;;;;;20.25;15.43;;;22.80;96.90;;;;;;4713592;30;20037;-78
2021/07/17 05:15:53;;;;;;;21.02;15.13;;;22.90;97.00;;;;;;4700815;30;20048;-78
2021/07/17 05:18:21;;;;;;;22.00;13.85;;;23.00;96.70;;;;;;4718856;30;20048;-77
2021/07/17 05:20:47;;;;;;;18.92;13.57;;;23.00;96.30;;;;;;4698659;30;20033;-78
2021/07/17 05:23:13;;;;;;;18.27;14.13;;;23.00;96.20;;;;;;4712210;30;20324;-77
2021/07/17 05:25:39;;;;;;;29.15;18.15;;;23.10;96.30;;;;;;4712215;30;20088;-79
2021/07/17 05:28:05;;;;;;;24.05;17.25;;;23.10;96.70;;;;;;4713450;30;20229;-78
2021/07/17 05:30:31;;;;;;;18.63;14.80;;;23.10;96.30;;;;;;4697448;30;20033;-79
2021/07/17 05:32:57;;;;;;;20.83;16.65;;;23.00;96.30;;;;;;4712530;30;20030;-78
2021/07/17 05:35:27;;;;;;;25.50;15.90;;;22.90;96.80;;;;;;4697382;30;20328;-78
2021/07/17 05:37:54;;;;;;;23.33;16.45;;;22.90;96.90;;;;;;4707174;30;20033;-78
2021/07/17 05:40:20;;;;;;;22.17;16.75;;;23.00;97.20;;;;;;4695339;30;20034;-78
2021/07/17 05:42:46;;;;;;;22.60;17.23;;;23.10;97.10;;;;;;4695623;30;20055;-77
2021/07/17 05:45:12;;;;;;;20.65;15.35;;;23.10;97.10;;;;;;4709115;30;20045;-76
2021/07/17 05:47:37;;;;;;;26.13;17.35;;;23.00;97.10;;;;;;4728702;30;20036;-78
2021/07/17 05:50:04;;;;;;;22.65;15.18;;;22.90;97.40;;;;;;4711002;30;20060;-78
2021/07/17 05:52:30;;;;;;;;;;;22.80;97.70;;;;;;4705632;30;20034;-77
2021/07/17 05:54:56;;;;;;;25.70;15.97;;;22.90;98.10;;;;;;4729642;30;19911;-77
2021/07/17 05:57:22;;;;;;;21.30;16.58;;;22.80;98.10;;;;;;4718236;30;20033;-77
2021/07/17 05:59:47;;;;;;;19.20;15.77;;;22.80;98.10;;;;;;4703806;30;20084;-77
2021/07/17 06:02:13;;;;;;;24.27;16.05;;;22.70;98.40;;;;;;4708231;30;20033;-77
2021/07/17 06:04:39;;;;;;;23.53;15.90;;;22.70;98.70;;;;;;4718676;30;20253;-77
2021/07/17 06:07:05;;;;;;;22.88;16.58;;;22.80;98.70;;;;;;4721639;30;20083;-77
2021/07/17 06:09:31;;;;;;;21.33;16.42;;;22.80;98.70;;;;;;4710343;30;20109;-77
2021/07/17 06:11:57;;;;;;;24.70;17.20;;;22.90;98.70;;;;;;4698313;30;20132;-77
2021/07/17 06:14:23;;;;;;;24.42;17.73;;;22.90;98.60;;;;;;4716166;30;20033;-77
2021/07/17 06:16:49;;;;;;;22.58;16.98;;;23.00;98.90;;;;;;4709220;30;20033;-77
2021/07/17 06:19:14;;;;;;;21.35;15.13;;;23.10;98.60;;;;;;4718001;30;20025;-77
2021/07/17 06:21:41;;;;;;;18.25;15.15;;;23.20;98.10;;;;;;4713014;30;20025;-77
2021/07/17 06:24:06;;;;;;;20.10;15.77;;;23.20;98.00;;;;;;4724280;30;20101;-77
2021/07/17 06:26:33;;;;;;;22.35;16.20;;;23.40;98.00;;;;;;4727541;30;20075;-77
2021/07/17 06:28:58;;;;;;;25.43;14.77;;;23.40;97.90;;;;;;4705853;30;20264;-77
2021/07/17 06:31:24;;;;;;;18.88;16.15;;;23.50;97.90;;;;;;4715981;30;20025;-77
2021/07/17 06:33:50;;;;;;;20.92;15.38;;;23.50;97.80;;;;;;4705944;30;20032;-77
2021/07/17 06:36:17;;;;;;;22.70;15.63;;;23.60;97.60;;;;;;4691788;30;20052;-77
2021/07/17 06:38:44;;;;;;;20.60;14.65;;;23.60;97.30;;;;;;4706168;30;20104;-78
2021/07/17 06:41:11;;;;;;;21.25;14.48;;;23.70;97.20;;;;;;4716459;30;20104;-77
2021/07/17 06:43:37;;;;;;;27.20;14.95;;;23.70;96.90;;;;;;4711866;30;20028;-77
2021/07/17 06:46:03;;;;;;;21.20;14.63;;;23.70;96.70;;;;;;4721259;30;20075;-77
2021/07/17 06:48:30;;;;;;;21.67;15.32;;;23.70;96.50;;;;;;4711690;30;20033;-77
2021/07/17 06:50:56;;;;;;;21.27;14.80;;;23.70;97.00;;;;;;4720229;30;20037;-77
2021/07/17 06:53:22;;;;;;;18.77;14.30;;;23.80;96.80;;;;;;4707090;30;20087;-77
2021/07/17 06:55:48;;;;;;;18.13;15.25;;;23.80;96.20;;;;;;4725081;30;20025;-77
2021/07/17 06:58:13;;;;;;;22.77;15.90;;;23.80;96.10;;;;;;4712578;30;20061;-77
2021/07/17 07:00:39;;;;;;;17.33;13.90;;;23.80;96.00;;;;;;4702503;30;20343;-77
2021/07/17 07:03:05;;;;;;;18.23;13.77;;;23.90;95.90;;;;;;4713333;30;20251;-77
2021/07/17 07:05:31;;;;;;;18.65;14.25;;;23.90;95.90;;;;;;4728223;30;20041;-77
2021/07/17 07:07:57;;;;;;;16.25;12.30;;;24.20;96.20;;;;;;4712360;30;20037;-77
2021/07/17 07:10:23;;;;;;;15.63;12.52;;;24.40;95.50;;;;;;4726837;30;20037;-77
2021/07/17 07:12:49;;;;;;;28.02;14.18;;;24.50;95.30;;;;;;4724574;30;20031;-77
2021/07/17 07:15:15;;;;;;;20.80;12.98;;;24.70;95.10;;;;;;4710472;30;20025;-78
2021/07/17 07:17:41;;;;;;;18.75;11.52;;;24.80;94.50;;;;;;4714038;30;20095;-77
2021/07/17 07:20:12;;;;;;;20.75;13.45;;;24.90;93.70;;;;;;4718948;30;20092;-77
2021/07/17 07:22:39;;;;;;;14.00;10.52;;;25.00;93.60;;;;;;4682490;30;20084;-77
2021/07/17 07:25:06;;;;;;;15.98;11.63;;;25.00;93.30;;;;;;4701280;30;20056;-77
2021/07/17 07:27:33;;;;;;;12.63;9.85;;;25.00;93.30;;;;;;4706402;30;20041;-77
2021/07/17 07:29:59;;;;;;;19.27;10.63;;;25.10;93.40;;;;;;4704847;30;20080;-76
2021/07/17 07:32:25;;;;;;;12.13;10.65;;;25.20;92.90;;;;;;4704375;30;20041;-76
2021/07/17 07:34:50;;;;;;;13.50;10.55;;;25.30;93.00;;;;;;4707988;30;20083;-76
2021/07/17 07:37:16;;;;;;;15.13;10.70;;;25.40;92.80;;;;;;4723197;30;20271;-77
2021/07/17 07:39:42;;;;;;;12.93;8.93;;;25.50;92.50;;;;;;4694277;30;20033;-77
2021/07/17 07:42:08;;;;;;;13.20;10.15;;;25.50;92.40;;;;;;4721257;30;20066;-76
2021/07/17 07:44:34;;;;;;;14.00;10.60;;;25.50;92.30;;;;;;4695675;30;20251;-77
2021/07/17 07:47:00;;;;;;;13.18;9.93;;;25.50;91.50;;;;;;4720757;30;20072;-77
2021/07/17 07:49:26;;;;;;;13.40;9.32;;;25.30;91.70;;;;;;4724412;30;20029;-78
2021/07/17 07:51:51;;;;;;;11.02;9.93;;;25.20;91.80;;;;;;4700095;30;20029;-78
2021/07/17 07:54:17;;;;;;;13.43;10.20;;;25.00;91.90;;;;;;4729562;30;20032;-77
2021/07/17 07:56:43;;;;;;;13.95;10.18;;;24.80;92.50;;;;;;4714993;30;20124;-78
2021/07/17 07:59:09;;;;;;;11.80;10.05;;;24.80;92.50;;;;;;4729880;30;20044;-78
2021/07/17 08:01:34;;;;;;;13.32;9.90;;;24.70;92.60;;;;;;4694539;30;20045;-78
2021/07/17 08:04:00;;;;;;;11.93;9.75;;;24.60;92.70;;;;;;4714500;30;20045;-77
2021/07/17 08:06:26;;;;;;;12.10;8.65;;;24.60;92.90;;;;;;4715306;30;20032;-77
2021/07/17 08:08:51;;;;;;;11.63;9.40;;;24.60;92.90;;;;;;4730472;30;20037;-78
2021/07/17 08:11:17;;;;;;;10.52;9.10;;;24.60;93.00;;;;;;4700445;30;20045;-77
2021/07/17 08:13:43;;;;;;;17.38;9.65;;;24.60;93.00;;;;;;4729198;30;20029;-77
2021/07/17 08:16:10;;;;;;;13.02;9.07;;;24.60;92.90;;;;;;4713855;30;20059;-75
2021/07/17 08:18:36;;;;;;;10.43;8.25;;;24.60;92.70;;;;;;4713630;30;20224;-75
2021/07/17 08:21:02;;;;;;;9.37;8.47;;;24.50;92.80;;;;;;4729239;30;20033;-75
2021/07/17 08:23:28;;;;;;;10.32;7.80;;;24.40;92.90;;;;;;4729386;30;20036;-77
2021/07/17 08:25:54;;;;;;;10.80;9.50;;;24.40;92.90;;;;;;4714156;30;20304;-75
2021/07/17 08:28:20;;;;;;;15.27;9.43;;;24.30;93.40;;;;;;4699561;30;20041;-77
2021/07/17 08:30:46;;;;;;;13.85;9.82;;;24.20;93.20;;;;;;4729838;30;20093;-77
2021/07/17 08:33:12;;;;;;;17.40;10.55;;;24.20;93.20;;;;;;4714470;30;20412;-78
2021/07/17 08:35:37;;;;;;;12.40;9.52;;;24.30;92.90;;;;;;4713741;30;20042;-75
2021/07/17 08:38:03;;;;;;;14.75;10.10;;;24.30;92.80;;;;;;4717668;30;20033;-77
2021/07/17 08:40:29;;;;;;;15.93;10.25;;;24.30;93.00;;;;;;4696364;30;20080;-77
2021/07/17 08:42:55;;;;;;;15.33;9.87;;;24.30;92.70;;;;;;4727123;30;20037;-77
2021/07/17 08:45:23;;;;;;;16.92;10.93;;;24.20;93.10;;;;;;4729115;30;20044;-77
2021/07/17 08:47:51;;;;;;;17.13;10.55;;;24.20;93.20;;;;;;4728508;30;20052;-77
2021/07/17 08:50:21;;;;;;;14.20;10.57;;;24.20;93.20;;;;;;4728861;30;20033;-78
2021/07/17 08:52:53;;;;;;;19.60;12.75;;;24.40;93.00;;;;;;4729019;30;20033;-78
2021/07/17 08:55:20;;;;;;;12.20;10.70;;;24.40;93.10;;;;;;4713666;30;20100;-76
2021/07/17 08:57:46;;;;;;;12.50;11.07;;;24.50;93.10;;;;;;4722829;30;20288;-77
2021/07/17 09:00:28;;;;;;;15.52;11.48;;;24.40;93.30;;;;;;4714139;30;20036;-78
2021/07/17 09:03:00;;;;;;;15.70;10.82;;;24.40;93.60;;;;;;4714207;30;20052;-78
2021/07/17 09:05:30;;;;;;;15.05;10.93;;;24.50;93.80;;;;;;4700214;30;20037;-78
2021/07/17 09:07:56;;;;;;;16.90;11.93;;;24.50;93.80;;;;;;4708194;30;20087;-78
2021/07/17 09:10:56;;;;;;;18.50;12.57;;;24.60;93.90;;;;;;4714193;30;20100;-78
2021/07/17 09:13:34;;;;;;;14.70;11.52;;;24.70;93.60;;;;;;4711177;30;20304;-76
2021/07/17 09:16:09;;;;;;;14.32;11.60;;;24.80;93.50;;;;;;4700299;30;20032;-78
2021/07/17 09:18:46;;;;;;;15.82;11.20;;;25.00;93.30;;;;;;4711218;30;20037;-76
2021/07/17 09:21:17;;;;;;;14.93;11.50;;;25.00;92.90;;;;;;4713279;30;20041;-76
2021/07/17 09:24:18;;;;;;;19.80;13.07;;;25.10;92.80;;;;;;4713789;30;20236;-76
2021/07/17 09:26:59;;;;;;;15.65;11.10;;;25.10;92.40;;;;;;4641854;31;20067;-76
2021/07/17 09:29:36;;;;;;;16.67;11.57;;;25.10;92.80;;;;;;4624841;31;20240;-78
2021/07/17 09:32:03;;;;;;;14.13;11.57;;;25.10;92.70;;;;;;4638522;31;20047;-77
2021/07/17 09:34:30;;;;;;;;;;;25.20;92.30;;;;;;4628741;31;20059;-78
2021/07/17 09:37:03;;;;;;;14.77;10.73;;;25.30;92.50;;;;;;4614106;31;19980;-79
2021/07/17 09:39:34;;;;;;;18.48;10.73;;;25.40;91.90;;;;;;4640174;31;20052;-79
2021/07/17 09:42:04;;;;;;;14.02;10.95;;;25.60;91.90;;;;;;4628125;31;20066;-79
2021/07/17 09:44:31;;;;;;;16.33;11.55;;;25.70;92.00;;;;;;4624166;31;20035;-79
2021/07/17 09:46:58;;;;;;;14.80;11.52;;;25.70;91.20;;;;;;4604659;31;20040;-79
2021/07/17 09:49:26;;;;;;;17.80;11.50;;;25.80;91.40;;;;;;4644487;31;20035;-78
2021/07/17 09:52:14;;;;;;;16.98;11.20;;;25.90;90.90;;;;;;4611087;31;20035;-79
2021/07/17 09:55:01;;;;;;;11.77;10.57;;;26.00;90.90;;;;;;4618614;31;20219;-78
2021/07/17 09:57:31;;;;;;;20.23;10.40;;;26.20;90.70;;;;;;4646078;30;20078;-78
2021/07/17 10:00:08;;;;;;;13.30;10.23;;;26.40;90.10;;;;;;4635384;30;20117;-79
2021/07/17 10:02:37;;;;;;;17.67;10.27;;;26.70;90.00;;;;;;4718357;30;20037;-79
2021/07/17 10:05:07;;;;;;;15.85;10.60;;;26.90;89.20;;;;;;4716883;30;20072;-80
2021/07/17 10:07:34;;;;;;;14.63;10.88;;;27.00;87.20;;;;;;4717777;30;20033;-79
2021/07/17 10:09:59;;;;;;;16.10;11.03;;;26.90;86.80;;;;;;4706597;30;20093;-79
2021/07/17 10:12:33;;;;;;;17.48;10.75;;;27.00;87.50;;;;;;4715695;30;20480;-78
2021/07/17 10:14:59;;;;;;;22.25;10.43;;;27.10;86.60;;;;;;4732336;30;20033;-79
2021/07/17 10:17:37;;;;;;;12.00;9.70;;;27.40;87.10;;;;;;4717774;30;20036;-79
2021/07/17 10:20:09;;;;;;;14.68;9.07;;;27.60;86.00;;;;;;4699437;30;20054;-79
2021/07/17 10:22:36;;;;;;;15.85;10.73;;;27.70;84.50;;;;;;4703492;30;20367;-79
2021/07/17 10:25:07;;;;;;;14.90;10.60;;;27.90;85.20;;;;;;4729589;30;20037;-79
2021/07/17 10:27:34;;;;;;;11.88;10.55;;;28.00;83.40;;;;;;4715904;30;20218;-79
2021/07/17 10:30:02;;;;;;;14.15;10.20;;;27.90;83.00;;;;;;4707269;30;20159;-78
2021/07/17 10:32:30;;;;;;;17.02;9.73;;;28.00;83.40;;;;;;4718841;30;20291;-79
2021/07/17 10:34:56;;;;;;;29.13;12.38;;;28.10;82.70;;;;;;4719987;30;20044;-79
2021/07/17 10:37:29;;;;;;;20.33;9.77;;;28.20;82.10;;;;;;4716409;30;20057;-78
2021/07/17 10:40:14;;;;;;;19.52;10.43;;;28.30;82.20;;;;;;4709324;30;20037;-80
2021/07/17 10:42:50;;;;;;;16.70;10.13;;;28.30;81.70;;;;;;4719736;30;20086;-79
2021/07/17 10:45:36;;;;;;;19.83;10.73;;;28.40;81.50;;;;;;4705400;30;20043;-79
2021/07/17 10:48:22;;;;;;;19.38;10.27;;;28.40;80.70;;;;;;4697953;30;20029;-80
2021/07/17 10:50:48;;;;;;;19.70;10.90;;;28.50;81.20;;;;;;4703271;30;20041;-80
2021/07/17 10:53:43;;;;;;;14.20;10.38;;;28.60;80.50;;;;;;4713544;30;20333;-80
2021/07/17 10:56:27;;;;;;;15.05;10.75;;;28.70;80.40;;;;;;4706005;30;20034;-80
2021/07/17 10:58:53;;;;;;;18.52;12.30;;;28.90;79.60;;;;;;4726761;30;20096;-80
2021/07/17 11:01:19;;;;;;;24.35;16.42;;;29.10;78.10;;;;;;4728810;30;20021;-79
2021/07/17 11:03:46;;;;;;;24.00;15.50;;;29.30;78.00;;;;;;4712954;30;20029;-80
2021/07/17 11:06:25;;;;;;;17.42;12.15;;;29.50;76.80;;;;;;4712253;30;20050;-80
2021/07/17 11:08:52;;;;;;;17.30;11.82;;;29.60;76.40;;;;;;4723423;30;20051;-80
2021/07/17 11:11:27;;;;;;;17.55;10.77;;;29.50;74.90;;;;;;4699636;30;20036;-79
2021/07/17 11:13:53;;;;;;;14.18;10.07;;;29.70;77.40;;;;;;4686049;30;20112;-78
2021/07/17 11:16:42;;;;;;;16.10;11.73;;;29.90;76.80;;;;;;4697656;30;20041;-78
2021/07/17 11:19:28;;;;;;;18.80;10.00;;;29.90;74.40;;;;;;4712156;30;20108;-78
2021/07/17 11:21:56;;;;;;;22.20;10.07;;;29.80;75.00;;;;;;4708431;30;20041;-77
2021/07/17 11:24:26;;;;;;;19.58;10.85;;;29.70;75.40;;;;;;4715514;30;20316;-79
2021/07/17 11:27:12;;;;;;;16.98;9.70;;;29.80;75.30;;;;;;4716320;30;20029;-79
2021/07/17 11:29:40;;;;;;;19.75;10.00;;;29.80;75.20;;;;;;4712753;30;20029;-79
2021/07/17 11:32:08;;;;;;;22.05;10.63;;;29.90;75.00;;;;;;4714185;30;20076;-77
2021/07/17 11:34:35;;;;;;;20.05;10.73;;;29.90;74.60;;;;;;4711741;30;20151;-78
2021/07/17 11:37:06;;;;;;;15.73;11.00;;;29.90;74.20;;;;;;4721877;30;20104;-78
2021/07/17 11:39:34;;;;;;;16.30;10.57;;;29.80;75.10;;;;;;4696529;30;20112;-78
2021/07/17 11:42:03;;;;;;;15.48;10.35;;;29.70;74.30;;;;;;4717993;30;20332;-79
2021/07/17 11:44:35;;;;;;;17.33;10.38;;;29.60;74.20;;;;;;4701800;30;20040;-78
2021/07/17 11:47:02;;;;;;;18.33;11.73;;;29.60;74.30;;;;;;4719683;30;20070;-79
2021/07/17 11:49:34;;;;;;;19.48;10.98;;;29.50;75.10;;;;;;4708979;30;20055;-79
2021/07/17 11:52:06;;;;;;;13.07;10.63;;;29.50;74.70;;;;;;4694864;30;20317;-78
2021/07/17 11:54:39;;;;;;;15.00;11.02;;;29.50;75.70;;;;;;4709850;30;20317;-78
2021/07/17 11:57:21;;;;;;;19.05;10.75;;;29.60;73.90;;;;;;4717465;30;20048;-78
2021/07/17 12:00:03;;;;;;;17.85;11.60;;;29.70;75.70;;;;;;4688265;30;20030;-78
2021/07/17 12:02:38;;;;;;;26.50;14.45;;;30.00;75.90;;;;;;4715782;30;20067;-78
2021/07/17 12:05:18;;;;;;;24.43;15.63;;;30.10;68.90;;;;;;4708476;30;20272;-78
2021/07/17 12:07:45;;;;;;;18.58;13.93;;;30.10;70.70;;;;;;4706992;30;20272;-78
2021/07/17 12:10:12;;;;;;;19.25;13.77;;;30.40;68.60;;;;;;4726330;30;20323;-78
2021/07/17 12:12:46;;;;;;;;;;;30.60;68.60;;;;;;4711891;30;20033;-78
2021/07/17 12:15:14;;;;;;;24.52;14.30;;;30.70;68.50;;;;;;4697395;30;19917;-78
2021/07/17 12:17:42;;;;;;;21.77;12.98;;;31.00;68.00;;;;;;4712313;30;20037;-78
2021/07/17 12:20:17;;;;;;;21.90;12.63;;;31.30;65.30;;;;;;4710247;30;20044;-78
2021/07/17 12:23:12;;;;;;;18.08;12.35;;;31.20;64.00;;;;;;4720465;30;20216;-78
2021/07/17 12:25:49;;;;;;;20.30;14.38;;;31.10;65.60;;;;;;4711651;30;20281;-79
2021/07/17 12:28:29;;;;;;;21.48;13.23;;;30.80;64.30;;;;;;4708226;30;20036;-79
2021/07/17 12:30:57;;;;;;;18.13;11.48;;;30.60;64.60;;;;;;4707111;30;20063;-79
2021/07/17 12:33:32;;;;;;;22.67;15.38;;;30.40;65.50;;;;;;4702465;30;20044;-78
2021/07/17 12:36:14;;;;;;;16.17;12.25;;;30.30;65.90;;;;;;4706610;30;20389;-78
2021/07/17 12:38:51;;;;;;;22.80;13.45;;;30.20;65.90;;;;;;4728851;30;20029;-78
2021/07/17 12:41:20;;;;;;;24.50;13.25;;;30.10;67.20;;;;;;4715108;30;20048;-78
2021/07/17 12:43:54;;;;;;;24.08;13.02;;;29.90;67.30;;;;;;4716329;30;20040;-77
2021/07/17 12:46:24;;;;;;;26.73;13.73;;;29.80;66.90;;;;;;4722176;30;20232;-78
2021/07/17 12:48:53;;;;;;;24.63;12.52;;;29.60;67.90;;;;;;4708579;30;20038;-77
2021/07/17 12:51:30;;;;;;;26.05;12.68;;;29.50;68.00;;;;;;4725738;30;20025;-78
2021/07/17 12:54:01;;;;;;;19.65;13.07;;;29.40;69.00;;;;;;4701538;30;20041;-78
2021/07/17 12:56:53;;;;;;;24.77;13.48;;;29.40;69.10;;;;;;4692764;30;20414;-78
2021/07/17 12:59:34;;;;;;;26.00;13.23;;;29.30;67.90;;;;;;4704376;30;20084;-78
2021/07/17 13:02:21;;;;;;;26.50;13.63;;;29.30;67.80;;;;;;4717739;30;20109;-77
2021/07/17 13:04:49;;;;;;;23.38;13.93;;;29.10;69.00;;;;;;4707178;30;20048;-78
2021/07/17 13:07:16;;;;;;;25.60;14.07;;;29.00;69.00;;;;;;4726463;30;20105;-78
2021/07/17 13:09:46;;;;;;;20.95;13.68;;;29.00;69.90;;;;;;4706923;30;20096;-76
2021/07/17 13:12:15;;;;;;;24.38;13.60;;;29.00;69.90;;;;;;4725626;30;20073;-77
2021/07/17 13:14:49;;;;;;;25.83;14.60;;;28.90;70.40;;;;;;4712825;30;20083;-76
2021/07/17 13:17:20;;;;;;;24.80;13.85;;;28.90;70.80;;;;;;4718399;30;20316;-76
2021/07/17 13:20:02;;;;;;;21.92;14.80;;;28.90;72.10;;;;;;4713026;30;20099;-76
2021/07/17 13:22:38;;;;;;;24.65;15.13;;;28.80;73.80;;;;;;4712214;30;20029;-76
2021/07/17 13:25:19;;;;;;;23.93;15.77;;;28.70;75.90;;;;;;4700610;30;20277;-76
2021/07/17 13:27:45;;;;;;;27.90;16.27;;;28.50;76.30;;;;;;4712467;30;20276;-76
2021/07/17 13:30:12;;;;;;;27.70;15.48;;;28.30;77.20;;;;;;4698241;30;20029;-76
2021/07/17 13:32:39;;;;;;;;;;;28.20;77.90;;;;;;4713238;30;20037;-76
2021/07/17 13:35:24;;;;;;;33.28;17.17;;;28.10;78.30;;;;;;4728185;30;19911;-76
2021/07/17 13:38:14;;;;;;;39.72;17.65;;;27.90;79.50;;;;;;4697637;30;20025;-76
2021/07/17 13:40:50;;;;;;;22.63;16.33;;;27.70;80.10;;;;;;4728233;30;20072;-77
2021/07/17 13:43:17;;;;;;;30.45;16.65;;;27.70;80.40;;;;;;4724237;30;20021;-77
2021/07/17 13:45:45;;;;;;;26.13;15.98;;;27.60;81.00;;;;;;4720141;30;20045;-77
2021/07/17 13:48:12;;;;;;;25.25;16.33;;;27.60;81.80;;;;;;4702907;30;20094;-77
2021/07/17 13:50:39;;;;;;;29.00;16.67;;;27.60;81.30;;;;;;4705689;30;20037;-77
2021/07/17 13:53:08;;;;;;;28.08;16.67;;;27.70;82.40;;;;;;4717777;30;20044;-77
2021/07/17 13:55:41;;;;;;;23.58;16.42;;;27.70;82.30;;;;;;4727799;30;20045;-77
2021/07/17 13:58:25;;;;;;;25.13;15.52;;;27.70;81.40;;;;;;4710904;30;20044;-77
2021/07/17 14:00:54;;;;;;;29.88;21.60;;;27.80;82.10;;;;;;4704289;30;20045;-77
2021/07/17 14:03:30;;;;;;;25.15;15.80;;;27.80;82.70;;;;;;4707240;30;20112;-77
2021/07/17 14:06:00;;;;;;;27.23;18.00;;;27.70;83.30;;;;;;4715440;30;20339;-77
2021/07/17 14:08:28;;;;;;;23.45;17.42;;;27.70;83.70;;;;;;4709498;30;20300;-77
2021/07/17 14:10:55;;;;;;;23.90;17.88;;;27.70;84.60;;;;;;4706014;30;20044;-77
2021/07/17 14:13:21;;;;;;;27.58;17.52;;;27.70;85.70;;;;;;4696750;30;20067;-77
2021/07/17 14:15:47;;;;;;;23.55;18.25;;;27.60;85.90;;;;;;4697139;30;20038;-77
2021/07/17 14:18:14;;;;;;;30.13;18.47;;;27.60;87.40;;;;;;4727535;30;20123;-77
2021/07/17 14:20:40;;;;;;;30.70;17.45;;;27.60;88.30;;;;;;4697734;30;20033;-77
2021/07/17 14:23:09;;;;;;;29.05;19.88;;;27.60;89.40;;;;;;4728435;30;20033;-78
2021/07/17 14:25:35;;;;;;;29.20;18.38;;;27.50;90.20;;;;;;4728795;30;20210;-78
2021/07/17 14:28:02;;;;;;;27.70;17.77;;;27.50;90.70;;;;;;4728570;30;20324;-78
2021/07/17 14:30:28;;;;;;;25.23;17.90;;;27.50;90.90;;;;;;4712805;30;20268;-77
2021/07/17 14:32:54;;;;;;;28.35;20.05;;;27.30;90.90;;;;;;4698220;30;20037;-77
2021/07/17 14:35:20;;;;;;;24.50;19.73;;;27.20;91.60;;;;;;4727997;30;20307;-78
2021/07/17 14:37:46;;;;;;;29.77;18.57;;;27.20;91.40;;;;;;4712259;30;20049;-77
2021/07/17 14:40:12;;;;;;;25.70;18.95;;;27.20;92.00;;;;;;4712444;30;20039;-78
2021/07/17 14:42:38;;;;;;;27.07;17.13;;;27.20;92.10;;;;;;4727694;30;20108;-77
2021/07/17 14:45:05;;;;;;;24.40;17.63;;;27.10;92.20;;;;;;4711258;30;20064;-77
2021/07/17 14:47:31;;;;;;;;;;;27.10;92.70;;;;;;4703757;30;20060;-77
2021/07/17 14:49:57;;;;;;;23.20;15.87;;;27.20;92.30;;;;;;4698477;30;19949;-77
2021/07/17 14:52:23;;;;;;;23.33;16.65;;;27.40;92.10;;;;;;4703850;30;20265;-77
2021/07/17 14:54:49;;;;;;;20.70;14.27;;;27.70;91.60;;;;;;4706352;30;20037;-79
2021/07/17 14:57:15;;;;;;;28.25;13.40;;;28.10;90.40;;;;;;4696577;30;20037;-79
2021/07/17 14:59:44;;;;;;;19.70;12.13;;;28.30;90.30;;;;;;4704783;30;20063;-80
2021/07/17 15:02:14;;;;;;;13.85;11.60;;;28.60;88.00;;;;;;4714903;30;20047;-79
2021/07/17 15:04:42;;;;;;;17.65;11.90;;;28.70;86.80;;;;;;4713481;30;20079;-79
2021/07/17 15:07:09;;;;;;;18.70;12.82;;;28.70;86.20;;;;;;4713846;30;20076;-81
2021/07/17 15:09:38;;;;;;;23.98;10.82;;;28.80;84.00;;;;;;4698803;30;20044;-81
2021/07/17 15:12:06;;;;;;;20.55;11.73;;;28.80;82.60;;;;;;4685787;30;20041;-82
2021/07/17 15:14:32;;;;;;;14.98;10.05;;;28.90;81.80;;;;;;4694392;30;20155;-82
2021/07/17 15:16:58;;;;;;;16.55;9.93;;;29.00;81.10;;;;;;4684352;30;20364;-80
2021/07/17 15:19:24;;;;;;;14.87;9.80;;;29.20;80.00;;;;;;4680461;30;20096;-82
2021/07/17 15:21:50;;;;;;;15.90;8.67;;;29.30;77.70;;;;;;4680923;30;20049;-82
2021/07/17 15:24:16;;;;;;;22.05;12.63;;;29.30;77.00;;;;;;4695152;30;20328;-80
2021/07/17 15:26:42;;;;;;;22.60;14.80;;;29.50;76.80;;;;;;4709298;30;20154;-82